Time;durP1;ratioP1;P1;durP2;ratioP2;P2;SDS_P1;SDS_P2;PMS_P1;PMS_P2;Temp;Humidity;BMP_temperature;BMP_pressure;BME280_temperature;BME280_humidity;BME280_pressure;Samples;Min_cycle;Max_cycle;Signal;HPM_P1;HPM_P2
2024/02/26 00:00:24;;;;;;;11.05;6.78;;;;;;;4.56;100.00;100137.56;5067082;28;20049;-62
2024/02/26 00:02:52;;;;;;;10.80;6.03;;;;;;;4.54;100.00;100150.81;5054452;28;20040;-61
2024/02/26 00:05:20;;;;;;;10.13;7.07;;;;;;;4.55;100.00;100151.63;5054761;28;20051;-61
2024/02/26 00:07:48;;;;;;;13.52;7.60;;;;;;;4.54;100.00;100155.47;5055428;28;20454;-62
2024/02/26 00:10:16;;;;;;;12.95;7.25;;;;;;;4.54;100.00;100174.66;5055752;28;20052;-61
2024/02/26 00:12:44;;;;;;;12.13;7.03;;;;;;;4.52;100.00;100179.66;5066302;28;20509;-62
2024/02/26 00:15:11;;;;;;;15.25;6.25;;;;;;;4.52;100.00;100185.13;5067890;28;20239;-59
2024/02/26 00:17:38;;;;;;;13.30;6.60;;;;;;;4.54;100.00;100188.38;5067377;28;20405;-59
2024/02/26 00:20:10;;;;;;;10.57;6.32;;;;;;;4.57;100.00;100194.03;5067510;28;20130;-62
2024/02/26 00:22:37;;;;;;;11.73;6.30;;;;;;;4.61;100.00;100188.69;5067362;28;20052;-61
2024/02/26 00:25:05;;;;;;;11.05;6.25;;;;;;;4.65;100.00;100197.91;5049814;28;20048;-59
2024/02/26 00:27:32;;;;;;;11.93;5.80;;;;;;;4.66;100.00;100200.31;5067355;28;20687;-60
2024/02/26 00:29:59;;;;;;;12.80;6.88;;;;;;;4.66;100.00;100208.53;5067829;28;20057;-60
2024/02/26 00:32:27;;;;;;;8.95;6.20;;;;;;;4.66;100.00;100214.03;5067476;28;20068;-60
2024/02/26 00:34:54;;;;;;;12.15;6.40;;;;;;;4.62;100.00;100213.06;5066793;28;20041;-60
2024/02/26 00:37:22;;;;;;;18.55;7.72;;;;;;;4.62;100.00;100220.47;5067575;28;20052;-60
2024/02/26 00:39:49;;;;;;;15.20;6.90;;;;;;;4.61;100.00;100227.88;5067433;28;20048;-60
2024/02/26 00:42:16;;;;;;;18.75;7.43;;;;;;;4.63;100.00;100231.09;5067589;28;20053;-60
2024/02/26 00:44:44;;;;;;;11.48;6.82;;;;;;;4.66;100.00;100237.91;5067446;28;20053;-59
2024/02/26 00:47:11;;;;;;;11.88;8.23;;;;;;;4.68;100.00;100244.69;5066502;28;20067;-60
2024/02/26 00:49:39;;;;;;;14.38;7.70;;;;;;;4.71;100.00;100260.50;5067130;28;20044;-60
2024/02/26 00:52:08;;;;;;;15.70;6.78;;;;;;;4.74;100.00;100254.38;5067580;28;20160;-60
2024/02/26 00:54:36;;;;;;;12.63;7.13;;;;;;;4.75;100.00;100260.66;5067363;28;20052;-60
2024/02/26 00:57:03;;;;;;;11.15;7.35;;;;;;;4.78;100.00;100265.53;5067198;28;20044;-60
2024/02/26 00:59:30;;;;;;;11.15;7.00;;;;;;;4.81;100.00;100275.88;5066622;28;20048;-59
2024/02/26 01:02:01;;;;;;;12.75;8.07;;;;;;;4.82;100.00;100286.50;5066388;28;20067;-60
2024/02/26 01:04:29;;;;;;;10.40;6.30;;;;;;;4.84;100.00;100276.00;5054239;28;20473;-60
2024/02/26 01:06:56;;;;;;;13.32;6.97;;;;;;;4.84;100.00;100281.50;5067197;28;20045;-59
2024/02/26 01:09:24;;;;;;;13.65;7.10;;;;;;;4.87;100.00;100291.06;5066913;28;20068;-60
2024/02/26 01:11:52;;;;;;;12.63;7.32;;;;;;;4.86;100.00;100287.50;5066805;28;20048;-59
2024/02/26 01:14:20;;;;;;;14.82;7.30;;;;;;;4.86;100.00;100300.41;5067161;28;20044;-60
2024/02/26 01:16:47;;;;;;;12.13;7.25;;;;;;;4.84;100.00;100299.91;5048050;28;20116;-60
2024/02/26 01:19:15;;;;;;;14.80;6.90;;;;;;;4.83;100.00;100303.78;5067222;28;20052;-59
2024/02/26 01:21:42;;;;;;;22.35;9.13;;;;;;;4.80;100.00;100318.13;5066710;28;20051;-60
2024/02/26 01:24:10;;;;;;;12.25;7.18;;;;;;;4.80;100.00;100315.38;5070019;28;20075;-61
2024/02/26 01:26:38;;;;;;;11.07;7.55;;;;;;;4.77;100.00;100318.75;5070040;28;20052;-60
2024/02/26 01:29:05;;;;;;;11.55;7.70;;;;;;;4.75;100.00;100327.28;5070841;28;20465;-60
2024/02/26 01:31:32;;;;;;;11.77;8.20;;;;;;;4.74;100.00;100338.56;5070705;28;20065;-60
2024/02/26 01:34:00;;;;;;;13.38;7.63;;;;;;;4.74;100.00;100341.31;5070627;28;20510;-60
2024/02/26 01:36:28;;;;;;;12.43;8.02;;;;;;;4.74;100.00;100347.59;5070160;28;20052;-61
2024/02/26 01:38:55;;;;;;;12.65;6.95;;;;;;;4.73;100.00;100348.75;5052406;28;20040;-60
2024/02/26 01:41:23;;;;;;;10.82;6.97;;;;;;;4.71;100.00;100353.72;5070380;28;20071;-59
2024/02/26 01:43:50;;;;;;;11.88;6.43;;;;;;;4.71;100.00;100355.69;5070203;28;20045;-60
2024/02/26 01:46:18;;;;;;;15.68;6.70;;;;;;;4.71;100.00;100358.41;5070754;28;20056;-59
2024/02/26 01:48:47;;;;;;;9.68;6.85;;;;;;;4.66;100.00;100362.09;5069813;28;20057;-60
2024/02/26 01:51:15;;;;;;;8.52;5.60;;;;;;;4.66;100.00;100383.22;5069100;28;20055;-60
2024/02/26 01:53:43;;;;;;;10.35;5.80;;;;;;;4.63;100.00;100392.09;5070088;28;20048;-59
2024/02/26 01:56:12;;;;;;;12.05;5.43;;;;;;;4.61;100.00;100402.53;5070009;28;20059;-60
2024/02/26 01:58:39;;;;;;;8.35;5.63;;;;;;;4.59;100.00;100410.25;5069539;28;20406;-60
2024/02/26 02:01:07;;;;;;;6.82;5.45;;;;;;;4.60;100.00;100420.13;5069463;28;20040;-60
2024/02/26 02:03:36;;;;;;;7.88;4.97;;;;;;;4.57;100.00;100426.22;5069991;28;20057;-60
2024/02/26 02:06:04;;;;;;;10.25;5.45;;;;;;;4.54;100.00;100435.06;5068924;28;20044;-59
2024/02/26 02:08:32;;;;;;;8.73;5.03;;;;;;;4.49;100.00;100444.25;5069405;28;20048;-60
2024/02/26 02:11:00;;;;;;;10.20;5.25;;;;;;;4.46;100.00;100441.31;5069075;28;20044;-60
2024/02/26 02:13:27;;;;;;;11.55;6.05;;;;;;;4.41;100.00;100450.47;5069036;28;20414;-60
2024/02/26 02:15:54;;;;;;;8.45;4.72;;;;;;;4.38;100.00;100461.25;5070045;28;20044;-60
2024/02/26 02:18:22;;;;;;;8.32;5.32;;;;;;;4.35;100.00;100464.59;5069786;28;20041;-61
2024/02/26 02:20:49;;;;;;;7.00;5.22;;;;;;;4.30;100.00;100463.59;5069062;28;20402;-59
2024/02/26 02:23:18;;;;;;;8.77;5.38;;;;;;;4.27;100.00;100461.47;5069931;28;20049;-60
2024/02/26 02:25:45;;;;;;;11.52;4.90;;;;;;;4.24;100.00;100472.25;5068628;28;20041;-60
2024/02/26 02:28:14;;;;;;;7.85;4.60;;;;;;;4.20;100.00;100474.00;5065424;28;20135;-60
2024/02/26 02:30:41;;;;;;;11.20;4.88;;;;;;;4.18;100.00;100479.78;5069202;28;20570;-59
2024/02/26 02:33:09;;;;;;;8.30;5.55;;;;;;;4.15;100.00;100480.41;5069099;28;20431;-60
2024/02/26 02:35:36;;;;;;;9.95;6.35;;;;;;;4.10;100.00;100479.72;5067796;28;20045;-60
2024/02/26 02:38:04;;;;;;;8.40;5.05;;;;;;;4.06;100.00;100489.66;5067754;28;20055;-61
2024/02/26 02:40:31;;;;;;;17.70;7.22;;;;;;;4.05;100.00;100493.53;5059074;28;20052;-59
2024/02/26 02:42:59;;;;;;;9.48;5.45;;;;;;;4.01;100.00;100497.97;5069341;28;20052;-60
2024/02/26 02:45:27;;;;;;;8.93;6.22;;;;;;;3.97;100.00;100497.78;5059707;28;20064;-60
2024/02/26 02:47:54;;;;;;;10.07;6.47;;;;;;;3.94;100.00;100520.34;5068019;28;20044;-62
2024/02/26 02:50:22;;;;;;;8.57;6.10;;;;;;;3.89;100.00;100517.66;5069174;28;20056;-60
2024/02/26 02:52:50;;;;;;;10.32;5.68;;;;;;;3.86;100.00;100529.25;5068581;28;20052;-60
2024/02/26 02:55:19;;;;;;;8.10;5.60;;;;;;;3.83;100.00;100529.88;5069654;28;20048;-60
2024/02/26 02:57:47;;;;;;;7.07;5.32;;;;;;;3.79;100.00;100544.47;5068287;28;20048;-60
2024/02/26 03:00:14;;;;;;;10.48;5.55;;;;;;;3.75;100.00;100547.00;5068688;28;20040;-60
2024/02/26 03:02:42;;;;;;;9.85;7.85;;;;;;;3.72;100.00;100550.34;5154829;22;20055;-60
2024/02/26 03:05:10;;;;;;;9.70;6.30;;;;;;;3.71;100.00;100553.41;5101495;28;20047;-59
2024/02/26 03:07:37;;;;;;;8.02;6.60;;;;;;;3.69;100.00;100556.44;5093462;28;20044;-60
2024/02/26 03:10:06;;;;;;;13.43;5.75;;;;;;;3.68;100.00;100549.31;5087686;28;20040;-59
2024/02/26 03:12:34;;;;;;;12.07;5.68;;;;;;;3.69;100.00;100567.38;5076059;28;20048;-60
2024/02/26 03:15:05;;;;;;;11.95;6.97;;;;;;;3.68;100.00;100568.50;5070772;28;20052;-60
2024/02/26 03:17:32;;;;;;;12.20;6.88;;;;;;;3.67;100.00;100577.84;5082704;28;20051;-60
2024/02/26 03:20:00;;;;;;;11.35;7.68;;;;;;;3.67;100.00;100586.06;5094736;28;20044;-60
2024/02/26 03:22:27;;;;;;;7.82;5.88;;;;;;;3.67;100.00;100595.06;5085722;28;20055;-60
2024/02/26 03:24:55;;;;;;;11.77;6.15;;;;;;;3.67;100.00;100591.53;5089677;28;20055;-60
2024/02/26 03:27:22;;;;;;;11.30;7.15;;;;;;;3.67;100.00;100597.00;5098012;28;20048;-61
2024/02/26 03:29:49;;;;;;;10.10;7.03;;;;;;;3.67;100.00;100602.47;5093287;28;20056;-59
2024/02/26 03:32:17;;;;;;;9.30;6.93;;;;;;;3.65;100.00;100604.72;5089707;28;20063;-59
2024/02/26 03:34:44;;;;;;;12.05;7.35;;;;;;;3.61;100.00;100607.22;5099797;28;20044;-60
2024/02/26 03:37:12;;;;;;;11.90;6.68;;;;;;;3.61;100.00;100609.16;5100734;28;20520;-60
2024/02/26 03:39:40;;;;;;;12.95;6.40;;;;;;;3.57;100.00;100602.66;5102711;28;20543;-59
2024/02/26 03:42:08;;;;;;;11.63;7.03;;;;;;;3.55;100.00;100607.59;5094218;28;20416;-60
2024/02/26 03:44:35;;;;;;;13.30;7.50;;;;;;;3.52;100.00;100611.75;5091072;28;20050;-59
2024/02/26 03:47:02;;;;;;;8.52;7.43;;;;;;;3.50;100.00;100624.13;5083752;28;20122;-60
2024/02/26 03:49:30;;;;;;;10.13;5.90;;;;;;;3.46;100.00;100623.13;5097628;28;20075;-60
2024/02/26 03:52:00;;;;;;;9.45;6.60;;;;;;;3.43;100.00;100635.47;5087305;28;20047;-59
2024/02/26 03:54:27;;;;;;;7.80;6.20;;;;;;;3.42;100.00;100644.78;5094583;28;20042;-59
2024/02/26 03:56:54;;;;;;;10.05;6.75;;;;;;;3.40;100.00;100652.50;5091447;28;20401;-59
2024/02/26 03:59:24;;;;;;;8.25;5.68;;;;;;;3.36;100.00;100670.59;5093308;28;20048;-60
2024/02/26 04:01:51;;;;;;;9.07;5.82;;;;;;;3.34;100.00;100680.22;5082656;28;20045;-59
2024/02/26 04:04:19;;;;;;;10.35;6.30;;;;;;;3.32;100.00;100696.13;5096514;28;20046;-60
2024/02/26 04:06:47;;;;;;;13.38;5.78;;;;;;;3.28;100.00;100682.25;5092745;28;20497;-59
2024/02/26 04:09:14;;;;;;;13.70;6.28;;;;;;;3.27;100.00;100685.28;5098526;28;20047;-59
2024/02/26 04:11:45;;;;;;;11.55;5.88;;;;;;;3.24;100.00;100688.59;5088374;28;20049;-59
2024/02/26 04:14:12;;;;;;;12.07;4.90;;;;;;;3.20;100.00;100690.31;5089750;28;20055;-60
2024/02/26 04:16:40;;;;;;;9.32;5.10;;;;;;;3.18;100.00;100704.28;5073200;28;20048;-60
2024/02/26 04:19:07;;;;;;;8.50;4.93;;;;;;;3.14;100.00;100697.81;5104285;28;20044;-60
2024/02/26 04:21:35;;;;;;;6.95;5.20;;;;;;;3.12;100.00;100708.22;5085517;28;20056;-59
2024/02/26 04:24:02;;;;;;;8.98;4.57;;;;;;;3.11;100.00;100713.97;5099060;28;20513;-59
2024/02/26 04:26:30;;;;;;;7.43;5.25;;;;;;;3.08;100.00;100713.47;5077271;28;20410;-60
2024/02/26 04:28:57;;;;;;;5.22;3.90;;;;;;;3.08;100.00;100729.88;5100147;28;20051;-59
2024/02/26 04:31:26;;;;;;;6.95;4.68;;;;;;;3.07;100.00;100730.97;5088402;28;20059;-61
2024/02/26 04:33:53;;;;;;;10.65;4.63;;;;;;;3.07;100.00;100746.59;5087424;28;20048;-59
2024/02/26 04:36:21;;;;;;;8.90;4.78;;;;;;;3.03;100.00;100746.38;5089146;28;20048;-59
2024/02/26 04:38:49;;;;;;;9.00;4.28;;;;;;;3.00;100.00;100757.88;5096729;28;20048;-59
2024/02/26 04:41:16;;;;;;;7.35;3.95;;;;;;;3.00;100.00;100757.06;5088711;28;20055;-59
2024/02/26 04:43:44;;;;;;;8.90;4.13;;;;;;;2.98;100.00;100762.84;5078979;28;20575;-59
2024/02/26 04:46:12;;;;;;;7.55;3.88;;;;;;;2.96;100.00;100767.81;5089415;28;20437;-59
2024/02/26 04:48:41;;;;;;;3.95;3.20;;;;;;;2.96;100.00;100765.06;5101182;28;20062;-59
2024/02/26 04:51:09;;;;;;;8.32;3.78;;;;;;;2.95;100.00;100770.81;5098425;28;20402;-60
2024/02/26 04:53:36;;;;;;;5.32;3.67;;;;;;;2.95;100.00;100777.09;5098343;28;20051;-59
2024/02/26 04:56:04;;;;;;;5.25;3.50;;;;;;;2.94;100.00;100780.94;5090309;28;20054;-60
2024/02/26 04:58:31;;;;;;;5.07;3.28;;;;;;;2.93;100.00;100792.19;5089299;28;20520;-60
2024/02/26 05:00:59;;;;;;;4.97;3.22;;;;;;;2.91;100.00;100800.66;5101610;28;21910;-59
2024/02/26 05:03:26;;;;;;;4.63;3.45;;;;;;;2.90;100.00;100806.44;5093462;28;20044;-59
2024/02/26 05:05:54;;;;;;;6.97;3.90;;;;;;;2.88;100.00;100808.66;5099326;28;20397;-59
2024/02/26 05:08:21;;;;;;;6.55;3.15;;;;;;;2.87;100.00;100817.94;5103100;28;20861;-60
2024/02/26 05:10:49;;;;;;;9.23;5.65;;;;;;;2.82;100.00;100827.03;5094354;28;20047;-59
2024/02/26 05:13:17;;;;;;;7.72;3.53;;;;;;;2.79;100.00;100822.16;5102919;28;20044;-59
2024/02/26 05:15:49;;;;;;;6.93;3.03;;;;;;;2.78;100.00;100825.19;5094235;28;20130;-60
2024/02/26 05:18:16;;;;;;;5.95;2.30;;;;;;;2.76;100.00;100847.34;5102836;28;20048;-60
2024/02/26 05:20:44;;;;;;;4.28;1.90;;;;;;;2.72;100.00;100837.28;5082490;28;20040;-59
2024/02/26 05:23:11;;;;;;;4.72;2.60;;;;;;;2.72;100.00;100843.56;5091700;28;20044;-59
2024/02/26 05:25:41;;;;;;;7.80;2.83;;;;;;;2.72;100.00;100859.97;5090824;28;20083;-59
2024/02/26 05:28:08;;;;;;;2.80;2.35;;;;;;;2.73;100.00;100867.03;5087870;28;20044;-59
2024/02/26 05:30:36;;;;;;;5.13;2.17;;;;;;;2.71;100.00;100874.72;5092158;28;20055;-59
2024/02/26 05:33:03;;;;;;;5.88;3.67;;;;;;;2.74;100.00;100878.78;5083103;28;20057;-59
2024/02/26 05:35:31;;;;;;;5.65;3.25;;;;;;;2.73;100.00;100883.44;5100962;28;20420;-60
2024/02/26 05:37:58;;;;;;;5.05;2.65;;;;;;;2.71;100.00;100891.13;5092026;28;20395;-60
2024/02/26 05:40:26;;;;;;;3.00;2.35;;;;;;;2.70;100.00;100905.88;5100102;28;20711;-59
2024/02/26 05:42:53;;;;;;;5.38;2.78;;;;;;;2.69;100.00;100903.47;5081766;28;20524;-59
2024/02/26 05:45:21;;;;;;;4.97;2.30;;;;;;;2.69;100.00;100903.47;5094211;28;20039;-59
2024/02/26 05:47:49;;;;;;;3.58;2.65;;;;;;;2.68;100.00;100910.00;5099048;28;20040;-60
2024/02/26 05:50:18;;;;;;;2.20;1.83;;;;;;;2.66;100.00;100915.78;5102076;28;20044;-60
2024/02/26 05:52:46;;;;;;;2.65;1.92;;;;;;;2.66;100.00;100920.44;5085614;28;20055;-59
2024/02/26 05:55:13;;;;;;;5.05;2.00;;;;;;;2.65;100.00;100925.06;5074061;28;20056;-59
2024/02/26 05:57:41;;;;;;;5.68;1.85;;;;;;;2.66;100.00;100928.63;5106371;28;20044;-59
2024/02/26 06:00:08;;;;;;;3.35;2.20;;;;;;;2.65;100.00;100927.03;5097301;28;20036;-61
2024/02/26 06:02:40;;;;;;;3.65;2.13;;;;;;;2.64;100.00;100934.41;5093545;28;20071;-59
2024/02/26 06:05:08;;;;;;;2.47;2.05;;;;;;;2.62;100.00;100925.66;5082285;28;20044;-59
2024/02/26 06:07:37;;;;;;;3.10;2.03;;;;;;;2.60;100.00;100922.41;5099426;28;20071;-59
2024/02/26 06:10:05;;;;;;;8.50;2.22;;;;;;;2.57;100.00;100922.97;5096663;28;20096;-59
2024/02/26 06:12:36;;;;;;;2.22;1.73;;;;;;;2.54;100.00;100918.09;5071753;28;20087;-59
2024/02/26 06:15:04;;;;;;;4.18;1.60;;;;;;;2.53;100.00;100921.91;5095596;28;20044;-59
2024/02/26 06:17:32;;;;;;;2.80;2.28;;;;;;;2.51;100.00;100931.50;5080769;28;20048;-59
2024/02/26 06:19:59;;;;;;;4.10;1.88;;;;;;;2.49;100.00;100923.59;5078701;28;20056;-59
2024/02/26 06:22:27;;;;;;;5.85;1.88;;;;;;;2.46;100.00;100935.91;5094920;28;20374;-59
2024/02/26 06:24:54;;;;;;;3.45;1.77;;;;;;;2.45;100.00;100941.66;5085161;28;20438;-59
2024/02/26 06:27:22;;;;;;;5.55;1.80;;;;;;;2.44;100.00;100946.31;5091600;28;20052;-60
2024/02/26 06:29:49;;;;;;;4.78;1.60;;;;;;;2.43;100.00;100946.63;5087556;28;20047;-60
2024/02/26 06:32:16;;;;;;;7.78;1.50;;;;;;;2.43;100.00;100946.63;5096469;28;20062;-59
2024/02/26 06:34:44;;;;;;;3.50;1.02;;;;;;;2.44;100.00;100956.41;5096376;28;20881;-60
2024/02/26 06:37:12;;;;;;;5.65;3.22;;;;;;;2.46;100.00;100955.03;5090891;28;20059;-60
2024/02/26 06:39:39;;;;;;;2.28;1.38;;;;;;;2.50;100.00;100965.41;5091688;28;20052;-59
2024/02/26 06:42:06;;;;;;;5.38;1.48;;;;;;;2.50;100.00;100963.47;5084649;28;20052;-59
2024/02/26 06:44:34;;;;;;;3.75;1.67;;;;;;;2.48;100.00;100965.69;5105165;28;20516;-59
2024/02/26 06:47:01;;;;;;;2.50;1.85;;;;;;;2.47;100.00;100983.19;5083871;28;20048;-59
2024/02/26 06:49:29;;;;;;;5.22;2.08;;;;;;;2.50;100.00;100987.25;5083624;28;20058;-61
2024/02/26 06:51:56;;;;;;;1.05;0.73;;;;;;;2.51;100.00;100999.81;5077988;28;20432;-59
2024/02/26 06:54:24;;;;;;;1.98;1.10;;;;;;;2.51;100.00;101013.50;5106734;28;20048;-59
2024/02/26 06:56:51;;;;;;;6.22;1.40;;;;;;;2.51;100.00;101008.84;5081063;28;20082;-59
2024/02/26 06:59:19;;;;;;;6.78;1.63;;;;;;;2.49;100.00;101012.97;5090698;28;20047;-59
2024/02/26 07:01:47;;;;;;;6.90;1.17;;;;;;;2.50;100.00;101020.03;5097813;28;20059;-59
2024/02/26 07:04:15;;;;;;;4.95;1.65;;;;;;;2.47;100.00;101021.44;5088717;28;20052;-59
2024/02/26 07:06:43;;;;;;;3.38;1.27;;;;;;;2.45;100.00;101008.06;5080753;28;20055;-59
2024/02/26 07:09:12;;;;;;;4.57;1.50;;;;;;;2.43;100.00;101010.28;5090966;28;20509;-59
2024/02/26 07:11:43;;;;;;;4.72;2.92;;;;;;;2.44;100.00;101011.06;5109457;28;20040;-59
2024/02/26 07:14:12;;;;;;;5.30;1.55;;;;;;;2.42;100.00;101029.69;5083847;28;20059;-59
2024/02/26 07:16:39;;;;;;;1.65;1.00;;;;;;;2.42;100.00;101018.75;5095785;28;20048;-60
2024/02/26 07:19:07;;;;;;;5.68;1.23;;;;;;;2.41;100.00;101025.28;5083084;28;20088;-59
2024/02/26 07:21:35;;;;;;;4.40;1.17;;;;;;;2.40;100.00;101029.16;5107740;28;20075;-60
2024/02/26 07:24:03;;;;;;;4.80;1.45;;;;;;;2.41;100.00;101033.50;5109850;28;20044;-59
2024/02/26 07:26:30;;;;;;;4.03;2.03;;;;;;;2.40;100.00;101042.81;5103250;28;20059;-60
2024/02/26 07:28:58;;;;;;;9.80;1.73;;;;;;;2.39;100.00;101042.00;5096457;28;20050;-60
2024/02/26 07:31:25;;;;;;;3.97;1.17;;;;;;;2.39;100.00;101057.56;5099609;28;20048;-60
2024/02/26 07:33:53;;;;;;;4.22;1.58;;;;;;;2.38;100.00;101050.47;5087340;28;20054;-60
2024/02/26 07:36:20;;;;;;;7.95;1.40;;;;;;;2.37;100.00;101055.13;5078781;28;20055;-60
2024/02/26 07:38:48;;;;;;;2.78;1.25;;;;;;;2.38;100.00;101055.94;5088624;28;20059;-60
2024/02/26 07:41:16;;;;;;;5.13;1.58;;;;;;;2.38;100.00;101058.69;5092149;28;20048;-60
2024/02/26 07:43:44;;;;;;;3.72;1.20;;;;;;;2.36;100.00;101060.84;5097594;28;20040;-60
2024/02/26 07:46:12;;;;;;;4.20;1.50;;;;;;;2.38;100.00;101067.66;5105029;28;20047;-59
2024/02/26 07:48:41;;;;;;;4.60;1.50;;;;;;;2.39;100.00;101066.56;5109057;28;20436;-59
2024/02/26 07:51:12;;;;;;;7.57;2.75;;;;;;;2.39;100.00;101073.94;5106046;28;20036;-59
2024/02/26 07:53:40;;;;;;;8.45;1.60;;;;;;;2.41;100.00;101074.47;5099151;28;20061;-60
2024/02/26 07:56:09;;;;;;;8.93;2.50;;;;;;;2.42;100.00;101076.94;5102759;28;20386;-59
2024/02/26 07:58:36;;;;;;;2.53;0.80;;;;;;;2.45;100.00;101089.22;5089105;28;20071;-61
2024/02/26 08:01:04;;;;;;;5.75;1.17;;;;;;;2.47;100.00;101092.47;5089370;28;20060;-59
2024/02/26 08:03:31;;;;;;;1.35;1.17;;;;;;;2.50;100.00;101097.38;5097082;28;20043;-60
2024/02/26 08:05:59;;;;;;;7.15;1.17;;;;;;;2.51;100.00;101109.13;5085921;28;20070;-60
2024/02/26 08:08:26;;;;;;;4.53;0.95;;;;;;;2.52;100.00;101108.03;5086361;28;20044;-59
2024/02/26 08:10:54;;;;;;;8.27;1.80;;;;;;;2.53;100.00;101112.41;5107175;28;20044;-60
2024/02/26 08:13:21;;;;;;;1.88;0.80;;;;;;;2.55;100.00;101115.66;5089049;28;20715;-59
2024/02/26 08:15:48;;;;;;;7.65;1.35;;;;;;;2.57;100.00;101125.22;5108437;28;20043;-59
2024/02/26 08:18:16;;;;;;;6.90;1.33;;;;;;;2.59;100.00;101131.22;5089688;28;20402;-59
2024/02/26 08:20:43;;;;;;;7.88;1.95;;;;;;;2.63;100.00;101143.22;5064674;28;20055;-59
2024/02/26 08:23:11;;;;;;;7.53;1.35;;;;;;;2.65;100.00;101141.00;5108470;28;20055;-60
2024/02/26 08:25:38;;;;;;;2.83;1.60;;;;;;;2.68;100.00;101154.13;5097705;28;20078;-58
2024/02/26 08:28:06;;;;;;;5.18;1.17;;;;;;;2.73;100.00;101158.72;5099811;28;20055;-60
2024/02/26 08:30:34;;;;;;;7.20;1.17;;;;;;;2.76;100.00;101156.25;5080253;28;20475;-60
2024/02/26 08:33:01;;;;;;;5.10;1.05;;;;;;;2.80;100.00;101162.81;5101815;28;20055;-59
2024/02/26 08:35:29;;;;;;;9.82;2.35;;;;;;;2.81;100.00;101161.69;5093513;28;21054;-60
2024/02/26 08:37:56;;;;;;;4.85;1.00;;;;;;;2.86;100.00;101169.06;5107829;28;20074;-59
2024/02/26 08:40:24;;;;;;;7.13;1.15;;;;;;;2.90;100.00;101173.66;5107458;28;20047;-59
2024/02/26 08:42:52;;;;;;;3.45;1.08;;;;;;;2.92;100.00;101176.09;5108061;28;20047;-60
2024/02/26 08:45:19;;;;;;;2.60;1.23;;;;;;;2.95;100.00;101186.47;5097950;28;20039;-59
2024/02/26 08:47:47;;;;;;;6.35;1.70;;;;;;;2.98;100.00;101189.47;5095407;28;20047;-59
2024/02/26 08:50:14;;;;;;;4.10;0.93;;;;;;;3.01;100.00;101202.59;5091025;28;20441;-59
2024/02/26 08:52:42;;;;;;;2.70;1.73;;;;;;;3.06;100.00;101205.28;5093467;28;20031;-59
2024/02/26 08:55:09;;;;;;;3.88;1.13;;;;;;;3.10;100.00;101223.88;5100202;28;20059;-59
2024/02/26 08:57:37;;;;;;;2.95;1.02;;;;;;;3.16;100.00;101222.72;5103872;28;20101;-59
2024/02/26 09:00:06;;;;;;;4.57;1.05;;;;;;;3.22;100.00;101229.78;5107816;28;20057;-59
2024/02/26 09:02:33;;;;;;;1.38;0.70;;;;;;;3.28;100.00;101242.34;5107399;28;20052;-59
2024/02/26 09:05:00;;;;;;;5.18;0.77;;;;;;;3.33;100.00;101242.31;5070050;28;20048;-59
2024/02/26 09:07:28;;;;;;;5.20;1.33;;;;;;;3.37;100.00;101235.97;5089289;28;20059;-59
2024/02/26 09:09:55;;;;;;;5.95;1.50;;;;;;;3.44;100.00;101252.09;5088656;28;20039;-59
2024/02/26 09:12:23;;;;;;;11.35;1.00;;;;;;;3.50;100.00;101238.06;5102287;28;20056;-59
2024/02/26 09:14:50;;;;;;;3.83;0.75;;;;;;;3.58;100.00;101242.91;5099639;28;20048;-59
2024/02/26 09:17:17;;;;;;;3.53;0.60;;;;;;;3.65;100.00;101242.59;5097963;28;20524;-59
2024/02/26 09:19:45;;;;;;;3.92;0.98;;;;;;;3.72;100.00;101245.00;5107980;28;20416;-59
2024/02/26 09:22:12;;;;;;;5.78;0.77;;;;;;;3.80;100.00;101249.84;5094083;28;20382;-59
2024/02/26 09:24:43;;;;;;;5.22;0.82;;;;;;;3.87;100.00;101258.53;5090376;28;20401;-59
2024/02/26 09:27:11;;;;;;;3.60;1.00;;;;;;;3.92;100.00;101262.03;5101306;28;20569;-55
2024/02/26 09:29:38;;;;;;;4.85;0.80;;;;;;;3.97;100.00;101267.47;5100500;28;20051;-57
2024/02/26 09:32:06;;;;;;;5.65;0.90;;;;;;;4.04;100.00;101273.44;5087635;28;20401;-58
2024/02/26 09:34:33;;;;;;;1.77;0.57;;;;;;;4.10;100.00;101275.00;5088375;28;20576;-58
2024/02/26 09:37:01;;;;;;;1.85;0.55;;;;;;;4.17;100.00;101280.16;5090385;28;20044;-59
2024/02/26 09:39:41;;;;;;;4.47;0.80;;;;;;;4.24;100.00;101281.44;5106733;28;20547;-57
2024/02/26 09:42:11;;;;;;;0.55;0.40;;;;;;;4.30;100.00;101283.03;5098728;28;20055;-57
2024/02/26 09:44:41;;;;;;;4.75;0.70;;;;;;;4.40;100.00;101297.72;5092726;28;20036;-59
2024/02/26 09:47:11;;;;;;;5.43;1.02;;;;;;;4.49;100.00;101299.56;5105877;28;20051;-59
2024/02/26 09:49:38;;;;;;;3.72;0.65;;;;;;;4.58;100.00;101297.00;5108646;28;20051;-58
2024/02/26 09:52:08;;;;;;;2.22;0.63;;;;;;;4.62;100.00;101300.78;5099240;28;20501;-59
2024/02/26 09:54:35;;;;;;;3.45;0.40;;;;;;;4.65;100.00;101302.94;5109180;28;20069;-60
2024/02/26 09:57:09;;;;;;;2.15;0.55;;;;;;;4.71;100.00;101290.81;5111362;28;20059;-58
2024/02/26 09:59:40;;;;;;;8.43;1.60;;;;;;;4.74;100.00;101292.94;5110980;28;20048;-58
2024/02/26 10:02:15;;;;;;;4.43;0.90;;;;;;;4.77;100.00;101290.44;5110312;28;20055;-58
2024/02/26 10:04:43;;;;;;;1.65;0.73;;;;;;;4.78;100.00;101281.13;5111177;28;20047;-60
2024/02/26 10:07:17;;;;;;;5.00;1.25;;;;;;;4.79;100.00;101292.91;5106384;28;20051;-60
2024/02/26 10:09:44;;;;;;;2.20;0.57;;;;;;;4.83;100.00;101293.94;5110533;28;20059;-57
2024/02/26 10:12:12;;;;;;;3.45;0.80;;;;;;;4.84;100.00;101279.13;5110987;28;20040;-59
2024/02/26 10:14:40;;;;;;;5.40;0.75;;;;;;;4.86;100.00;101276.91;5110469;28;20701;-58
2024/02/26 10:17:08;;;;;;;0.90;0.65;;;;;;;4.89;100.00;101270.81;5107168;28;20158;-59
2024/02/26 10:19:36;;;;;;;4.57;0.70;;;;;;;4.90;100.00;101267.78;5110495;28;20039;-59
2024/02/26 10:22:05;;;;;;;3.65;0.60;;;;;;;4.95;100.00;101268.84;5111282;28;20043;-59
2024/02/26 10:24:34;;;;;;;1.40;0.40;;;;;;;4.96;100.00;101265.78;5093701;28;20098;-59
2024/02/26 10:27:02;;;;;;;1.50;0.60;;;;;;;5.02;100.00;101275.59;5110623;28;20067;-58
2024/02/26 10:29:32;;;;;;;1.05;0.50;;;;;;;5.08;100.00;101274.41;5110809;28;20043;-60
2024/02/26 10:31:59;;;;;;;4.22;0.60;;;;;;;5.14;100.00;101281.44;5110622;28;20039;-58
2024/02/26 10:34:27;;;;;;;3.35;0.70;;;;;;;5.19;100.00;101264.91;5097673;28;20052;-59
2024/02/26 10:36:55;;;;;;;1.17;0.68;;;;;;;5.23;100.00;101268.69;5076739;28;20052;-60
2024/02/26 10:39:23;;;;;;;3.92;0.95;;;;;;;5.26;100.00;101253.56;5104689;28;20416;-59
2024/02/26 10:41:50;;;;;;;5.38;0.50;;;;;;;5.33;100.00;101274.03;5095908;28;20045;-60
2024/02/26 10:44:19;;;;;;;2.50;1.80;;;;;;;5.38;100.00;101268.47;5081423;28;20051;-60
2024/02/26 10:46:49;;;;;;;1.70;0.50;;;;;;;5.45;100.00;101279.09;5097570;28;20428;-58
2024/02/26 10:49:19;;;;;;;3.13;0.70;;;;;;;5.48;100.00;101267.50;5109680;28;20075;-58
2024/02/26 10:51:55;;;;;;;6.13;0.38;;;;;;;5.50;100.00;101285.31;5088449;28;20048;-57
2024/02/26 10:54:25;;;;;;;2.40;0.60;;;;;;;5.52;100.00;101285.00;5107500;28;20063;-59
2024/02/26 10:56:54;;;;;;;2.33;0.73;;;;;;;5.55;100.00;101278.91;5100199;28;20048;-60
2024/02/26 10:59:22;;;;;;;1.35;0.73;;;;;;;5.58;100.00;101283.00;5090246;28;20060;-58
2024/02/26 11:01:50;;;;;;;2.58;0.60;;;;;;;5.60;100.00;101278.03;5104055;28;20067;-57
2024/02/26 11:04:18;;;;;;;2.17;0.45;;;;;;;5.68;100.00;101299.31;5090112;28;20040;-59
2024/02/26 11:06:47;;;;;;;4.57;0.73;;;;;;;5.69;100.00;101301.78;5092612;28;20059;-56
2024/02/26 11:09:16;;;;;;;2.47;0.80;;;;;;;5.75;100.00;101305.22;5104794;28;20036;-59
2024/02/26 11:11:44;;;;;;;0.85;0.40;;;;;;;5.77;100.00;101320.31;5103464;28;20047;-58
2024/02/26 11:14:13;;;;;;;0.47;0.32;;;;;;;5.79;100.00;101318.09;5072601;28;20040;-59
2024/02/26 11:16:42;;;;;;;2.58;0.57;;;;;;;5.81;100.00;101326.84;5104352;28;20058;-58
2024/02/26 11:19:12;;;;;;;2.10;0.55;;;;;;;5.82;100.00;101334.00;5084063;28;20051;-56
2024/02/26 11:21:41;;;;;;;9.38;0.90;;;;;;;5.86;100.00;101334.22;5096628;28;20052;-59
2024/02/26 11:24:13;;;;;;;1.88;0.45;;;;;;;5.88;100.00;101331.97;5102239;28;20142;-59